Time;durP1;ratioP1;P1;durP2;ratioP2;P2;SDS_P1;SDS_P2;PMS_P1;PMS_P2;Temp;Humidity;BMP_temperature;BMP_pressure;BME280_temperature;BME280_humidity;BME280_pressure;Samples;Min_cycle;Max_cycle;Signal;HPM_P1;HPM_P2
2021/06/17 04:12:36;;;;;;;0.20;0.20;;;21.60;99.60;;;;;;4966796;23;20240;-75
2021/06/17 04:15:05;;;;;;;0.20;0.20;;;21.60;99.70;;;;;;4936383;29;20220;-76
2021/06/17 04:17:39;;;;;;;0.20;0.20;;;21.60;99.80;;;;;;4935786;29;20292;-76
2021/06/17 04:20:13;;;;;;;0.20;0.20;;;21.60;99.70;;;;;;4935976;29;20276;-76
2021/06/17 04:25:19;;;;;;;0.20;0.20;;;21.70;99.50;;;;;;4899024;29;20223;-83
2021/06/17 04:27:50;;;;;;;0.20;0.20;;;21.80;99.50;;;;;;4900660;29;20310;-83
2021/06/17 04:30:19;;;;;;;0.20;0.20;;;21.70;99.40;;;;;;4901187;29;20232;-83
2021/06/17 04:32:50;;;;;;;0.20;0.20;;;22.00;99.90;;;;;;4903109;29;20278;-81
2021/06/17 04:35:20;;;;;;;0.20;0.20;;;21.90;99.10;;;;;;4898068;29;20204;-78
2021/06/17 04:37:49;;;;;;;0.20;0.20;;;22.00;99.20;;;;;;4900388;29;20211;-79
2021/06/17 04:40:17;;;;;;;0.20;0.20;;;22.00;99.00;;;;;;4912598;29;20202;-81
2021/06/17 04:42:45;;;;;;;0.20;0.20;;;22.00;99.90;;;;;;4919223;29;20214;-81
2021/06/17 04:45:17;;;;;;;0.20;0.20;;;22.20;98.80;;;;;;4919073;29;20278;-77
2021/06/17 04:47:49;;;;;;;0.20;0.20;;;22.20;98.70;;;;;;4920676;29;20222;-79
2021/06/17 04:50:18;;;;;;;0.20;0.20;;;22.20;98.80;;;;;;4920387;29;20214;-81
2021/06/17 04:53:10;;;;;;;0.20;0.20;;;22.40;99.90;;;;;;4920488;29;20235;-82
2021/06/17 04:55:46;;;;;;;0.20;0.20;;;22.30;98.40;;;;;;4920202;29;20218;-81
2021/06/17 04:58:14;;;;;;;0.20;0.20;;;22.40;98.30;;;;;;4920523;29;20230;-81
2021/06/17 05:00:44;;;;;;;0.30;0.30;;;22.40;98.50;;;;;;4920815;29;20243;-81
2021/06/17 05:03:12;;;;;;;0.20;0.20;;;22.50;98.30;;;;;;4919980;29;20587;-81
2021/06/17 05:05:40;;;;;;;0.17;0.17;;;22.60;98.10;;;;;;4919412;29;20262;-82
2021/06/17 05:10:58;;;;;;;0.20;0.20;;;22.90;97.70;;;;;;4900941;29;20211;-82
2021/06/17 05:13:28;;;;;;;0.20;0.20;;;22.90;97.60;;;;;;4900206;29;20251;-82
2021/06/17 05:15:58;;;;;;;0.10;0.10;;;23.10;97.30;;;;;;4900254;29;20195;-82
2021/06/17 05:18:27;;;;;;;0.20;0.20;;;23.20;97.00;;;;;;4900462;29;20211;-81
2021/06/17 05:20:56;;;;;;;0.10;0.10;;;23.20;96.70;;;;;;4901327;29;20244;-81
2021/06/17 05:23:26;;;;;;;0.20;0.20;;;23.20;96.50;;;;;;4900642;29;20235;-81
2021/06/17 05:25:56;;;;;;;0.10;0.10;;;23.20;96.50;;;;;;4902015;29;20195;-81
2021/06/17 05:28:25;;;;;;;0.20;0.20;;;23.30;96.80;;;;;;4900641;29;20268;-81
2021/06/17 05:30:55;;;;;;;0.10;0.10;;;23.50;96.40;;;;;;4898583;29;20208;-74
2021/06/17 05:33:24;;;;;;;0.10;0.10;;;23.50;96.30;;;;;;4896421;29;20673;-74
2021/06/17 05:35:52;;;;;;;0.20;0.20;;;23.70;96.40;;;;;;4896247;29;20747;-75
2021/06/17 05:38:22;;;;;;;0.10;0.10;;;23.70;95.80;;;;;;4896560;29;20203;-74
2021/06/17 05:40:50;;;;;;;0.20;0.20;;;23.80;95.50;;;;;;4896691;29;20203;-75
2021/06/17 05:43:19;;;;;;;0.20;0.20;;;23.90;95.30;;;;;;4896491;29;20291;-73
2021/06/17 05:45:47;;;;;;;0.10;0.10;;;23.90;95.40;;;;;;4896291;29;20212;-73
2021/06/17 05:48:15;;;;;;;0.10;0.10;;;23.90;95.00;;;;;;4896441;29;20290;-72
2021/06/17 05:50:44;;;;;;;0.20;0.20;;;24.00;95.00;;;;;;4896691;29;20230;-73
2021/06/17 05:53:12;;;;;;;0.20;0.20;;;24.00;94.90;;;;;;4896526;29;20765;-83
2021/06/17 05:55:40;;;;;;;0.20;0.20;;;24.10;95.00;;;;;;4901270;29;20204;-82
2021/06/17 05:58:08;;;;;;;0.10;0.10;;;24.20;94.80;;;;;;4901477;29;20207;-81
2021/06/17 06:00:36;;;;;;;0.10;0.10;;;24.40;94.70;;;;;;4901679;29;20649;-81
2021/06/17 06:03:04;;;;;;;0.10;0.10;;;24.50;94.50;;;;;;4900497;29;20295;-82
2021/06/17 06:05:32;;;;;;;0.10;0.10;;;24.50;94.50;;;;;;4900660;29;20500;-83
2021/06/17 06:08:03;;;;;;;0.10;0.10;;;24.60;94.30;;;;;;4900435;29;20211;-82
2021/06/17 06:10:32;;;;;;;0.10;0.10;;;24.70;94.00;;;;;;4901778;29;20223;-83
2021/06/17 06:12:59;;;;;;;0.20;0.20;;;24.70;94.10;;;;;;4904210;29;20282;-83
2021/06/17 06:15:32;;;;;;;0.10;0.10;;;24.70;93.40;;;;;;4904489;29;20231;-82
2021/06/17 06:18:08;;;;;;;0.10;0.10;;;24.60;93.80;;;;;;4903728;29;20684;-83
2021/06/17 06:20:36;;;;;;;0.20;0.20;;;24.70;93.40;;;;;;4904638;29;20199;-83
2021/06/17 06:23:07;;;;;;;0.10;0.10;;;24.70;93.30;;;;;;4903617;29;20252;-83
2021/06/17 06:25:36;;;;;;;0.10;0.10;;;24.80;93.10;;;;;;4903028;29;20207;-81
2021/06/17 06:28:05;;;;;;;0.10;0.10;;;24.90;93.40;;;;;;4903362;29;20219;-83
2021/06/17 06:30:33;;;;;;;0.20;0.20;;;25.00;92.90;;;;;;4903896;29;20227;-83
2021/06/17 06:33:01;;;;;;;0.20;0.20;;;25.10;93.10;;;;;;4903524;29;20260;-83
2021/06/17 06:35:28;;;;;;;0.10;0.10;;;25.30;92.90;;;;;;4903860;29;20240;-83
2021/06/17 06:37:56;;;;;;;0.10;0.10;;;25.30;92.20;;;;;;4904360;29;20208;-84
2021/06/17 06:40:27;;;;;;;0.10;0.10;;;25.40;92.20;;;;;;4904388;29;20684;-84
2021/06/17 06:42:57;;;;;;;0.20;0.20;;;25.80;97.90;;;;;;4907870;29;20214;-82
2021/06/17 06:45:25;;;;;;;0.10;0.10;;;25.60;92.30;;;;;;4914544;29;20239;-81
2021/06/17 06:47:53;;;;;;;0.10;0.10;;;25.60;92.20;;;;;;4914855;29;20207;-80
2021/06/17 06:50:22;;;;;;;0.10;0.10;;;25.60;91.70;;;;;;4915625;29;20227;-81
2021/06/17 06:52:50;;;;;;;0.10;0.10;;;25.70;99.90;;;;;;4917041;29;20390;-79
2021/06/17 06:55:18;;;;;;;0.10;0.10;;;25.80;92.00;;;;;;4915177;29;20728;-81
2021/06/17 06:57:48;;;;;;;0.10;0.10;;;25.90;91.40;;;;;;4906554;29;20208;-83
2021/06/17 07:00:17;;;;;;;0.10;0.10;;;26.00;91.20;;;;;;4907683;29;20210;-81
2021/06/17 07:02:46;;;;;;;0.10;0.10;;;26.10;90.70;;;;;;4910737;29;20207;-83
2021/06/17 07:05:14;;;;;;;0.10;0.10;;;26.20;90.70;;;;;;4907813;29;20211;-81
2021/06/17 07:07:43;;;;;;;0.10;0.10;;;26.00;90.30;;;;;;4905741;29;20748;-83
2021/06/17 07:10:11;;;;;;;0.10;0.10;;;26.40;91.10;;;;;;4907698;29;20235;-83
2021/06/17 07:12:40;;;;;;;0.10;0.10;;;26.40;90.30;;;;;;4905175;29;20306;-83
2021/06/17 07:15:11;;;;;;;0.10;0.10;;;;;;;;;;4902376;29;20677;-82
2021/06/17 07:17:39;;;;;;;0.10;0.10;;;26.60;89.20;;;;;;4902171;29;20207;-83
2021/06/17 07:20:08;;;;;;;0.10;0.10;;;26.50;89.90;;;;;;4902412;29;20234;-83
2021/06/17 07:22:37;;;;;;;0.10;0.10;;;26.60;89.10;;;;;;4900616;29;20208;-83
2021/06/17 07:25:06;;;;;;;0.10;0.10;;;26.70;88.40;;;;;;4902396;29;20219;-80
2021/06/17 07:27:34;;;;;;;0.20;0.20;;;26.70;87.70;;;;;;4901723;29;20753;-84
2021/06/17 07:30:02;;;;;;;0.10;0.10;;;;;;;;;;4911747;29;20792;-80
2021/06/17 07:32:31;;;;;;;0.10;0.10;;;26.90;87.40;;;;;;4912700;29;20236;-80
2021/06/17 07:34:59;;;;;;;0.10;0.10;;;27.00;88.50;;;;;;4907331;29;20255;-80
2021/06/17 07:37:27;;;;;;;0.10;0.10;;;28.00;99.40;;;;;;4905472;29;20210;-80
2021/06/17 07:39:55;;;;;;;0.10;0.10;;;27.20;87.00;;;;;;4905451;29;20664;-81
2021/06/17 07:42:23;;;;;;;0.10;0.10;;;;;;;;;;4905555;29;20262;-79
2021/06/17 07:44:51;;;;;;;0.10;0.10;;;27.10;86.40;;;;;;4905949;29;20224;-80
2021/06/17 07:47:19;;;;;;;0.10;0.10;;;27.50;85.60;;;;;;4905473;29;20203;-80
2021/06/17 07:49:48;;;;;;;0.10;0.10;;;27.50;85.30;;;;;;4904707;29;20215;-80
2021/06/17 07:52:17;;;;;;;0.10;0.10;;;28.00;95.70;;;;;;4904828;29;20207;-81
2021/06/17 07:54:48;;;;;;;0.10;0.10;;;27.90;91.80;;;;;;4905294;29;20216;-80
2021/06/17 07:57:16;;;;;;;0.10;0.10;;;27.80;84.30;;;;;;4902563;29;20632;-80
2021/06/17 07:59:45;;;;;;;0.10;0.10;;;27.80;83.00;;;;;;4901957;29;20518;-80
2021/06/17 08:02:13;;;;;;;0.10;0.10;;;27.90;81.40;;;;;;4902019;29;20203;-80
2021/06/17 08:04:41;;;;;;;0.10;0.10;;;28.00;80.40;;;;;;4903596;29;20698;-80
2021/06/17 08:07:10;;;;;;;0.10;0.10;;;28.00;81.70;;;;;;4904256;29;20207;-80
2021/06/17 08:09:38;;;;;;;0.10;0.10;;;28.00;87.30;;;;;;4904082;29;20227;-80
2021/06/17 08:12:06;;;;;;;0.10;0.10;;;28.30;90.60;;;;;;4904730;29;20282;-80
2021/06/17 08:14:34;;;;;;;0.10;0.10;;;28.10;82.70;;;;;;4904012;29;20669;-81
2021/06/17 08:17:03;;;;;;;0.10;0.10;;;28.10;80.70;;;;;;4904084;29;20219;-81
2021/06/17 08:19:31;;;;;;;0.10;0.10;;;28.20;81.30;;;;;;4905084;29;20211;-80
2021/06/17 08:22:03;;;;;;;0.10;0.10;;;28.10;95.10;;;;;;4904735;29;20240;-81
2021/06/17 08:24:33;;;;;;;0.10;0.10;;;28.50;96.60;;;;;;4904883;29;20238;-80
2021/06/17 08:27:01;;;;;;;0.10;0.10;;;28.30;78.40;;;;;;4903874;29;20207;-80
2021/06/17 08:29:29;;;;;;;0.10;0.10;;;28.20;78.20;;;;;;4904122;29;20235;-81
2021/06/17 08:31:57;;;;;;;0.10;0.10;;;28.30;77.50;;;;;;4904443;29;20203;-81
2021/06/17 08:34:28;;;;;;;0.10;0.10;;;28.10;77.80;;;;;;4904165;29;20223;-80
2021/06/17 08:36:56;;;;;;;0.10;0.10;;;28.50;77.30;;;;;;4904803;29;20211;-81
2021/06/17 08:39:25;;;;;;;0.10;0.10;;;28.50;76.20;;;;;;4908431;29;20207;-79
2021/06/17 08:41:54;;;;;;;0.10;0.10;;;28.60;69.70;;;;;;4909835;29;20207;-79
2021/06/17 08:44:23;;;;;;;0.10;0.10;;;28.80;68.00;;;;;;4909033;29;20271;-80
2021/06/17 08:46:51;;;;;;;0.10;0.10;;;28.80;69.10;;;;;;4907716;29;20236;-79
2021/06/17 08:49:21;;;;;;;0.10;0.10;;;28.80;68.10;;;;;;4903479;29;20641;-81
2021/06/17 08:51:49;;;;;;;0.10;0.10;;;28.90;68.30;;;;;;4902975;29;20231;-81
2021/06/17 08:54:21;;;;;;;0.10;0.10;;;29.00;66.40;;;;;;4903324;29;20238;-79
2021/06/17 08:56:49;;;;;;;0.10;0.10;;;29.10;65.20;;;;;;4903447;29;20204;-79
2021/06/17 08:59:18;;;;;;;0.10;0.10;;;29.10;63.10;;;;;;4903823;29;20208;-78
2021/06/17 09:01:54;;;;;;;0.10;0.10;;;29.00;63.50;;;;;;4904085;29;20203;-79
2021/06/17 09:04:26;;;;;;;0.10;0.10;;;29.10;64.10;;;;;;4903607;29;20642;-79
2021/06/17 09:07:06;;;;;;;0.10;0.10;;;29.20;63.60;;;;;;4903576;29;20247;-78
2021/06/17 09:09:37;;;;;;;0.10;0.10;;;29.20;63.70;;;;;;4903895;29;20607;-79
2021/06/17 09:12:06;;;;;;;0.10;0.10;;;29.20;61.60;;;;;;4902889;29;20234;-79
2021/06/17 09:14:37;;;;;;;0.10;0.10;;;29.20;61.60;;;;;;4904653;29;20226;-79
2021/06/17 09:17:07;;;;;;;0.10;0.10;;;29.20;61.30;;;;;;4903561;29;20267;-78
2021/06/17 09:19:40;;;;;;;0.10;0.10;;;29.20;61.60;;;;;;4903984;29;20255;-79
2021/06/17 09:22:10;;;;;;;0.10;0.10;;;29.40;74.30;;;;;;4903400;29;20665;-79
2021/06/17 09:24:40;;;;;;;0.10;0.10;;;30.20;63.10;;;;;;4902833;29;20283;-79
2021/06/17 09:27:29;;;;;;;0.10;0.10;;;29.50;61.00;;;;;;4903149;29;20254;-79
2021/06/17 09:30:16;;;;;;;0.10;0.10;;;29.50;59.50;;;;;;4902899;29;20395;-78
2021/06/17 09:32:49;;;;;;;0.10;0.10;;;29.70;78.90;;;;;;4903414;29;20271;-78
2021/06/17 09:35:18;;;;;;;0.10;0.10;;;29.70;61.30;;;;;;4903438;29;20215;-79
2021/06/17 09:37:47;;;;;;;0.10;0.10;;;29.70;61.30;;;;;;4903481;29;20209;-78
2021/06/17 09:40:24;;;;;;;0.10;0.10;;;29.60;62.50;;;;;;4903511;29;20219;-80
2021/06/17 09:42:53;;;;;;;0.10;0.10;;;29.70;62.40;;;;;;4903256;29;20220;-78
2021/06/17 09:45:45;;;;;;;0.10;0.10;;;29.80;61.60;;;;;;4904372;29;20263;-81
2021/06/17 09:48:35;;;;;;;0.10;0.10;;;29.80;62.70;;;;;;4907537;29;20235;-81
2021/06/17 09:51:26;;;;;;;0.10;0.10;;;29.90;61.60;;;;;;4907499;29;20776;-81
2021/06/17 09:54:07;;;;;;;0.10;0.10;;;29.80;60.90;;;;;;4907230;29;20234;-79
2021/06/17 09:56:37;;;;;;;0.10;0.10;;;30.50;62.00;;;;;;4907079;29;20203;-79
2021/06/17 09:59:07;;;;;;;0.10;0.10;;;29.90;60.50;;;;;;4907237;29;20259;-79
2021/06/17 10:01:43;;;;;;;0.00;0.00;;;30.10;67.00;;;;;;4907768;29;20286;-78
2021/06/17 10:04:13;;;;;;;0.10;0.10;;;29.90;68.10;;;;;;4907586;29;20227;-79
2021/06/17 10:06:42;;;;;;;0.10;0.10;;;30.10;58.60;;;;;;4906345;29;20204;-79
2021/06/17 10:09:11;;;;;;;0.10;0.10;;;30.30;70.70;;;;;;4907229;29;20211;-79
2021/06/17 10:11:40;;;;;;;0.10;0.10;;;30.40;61.10;;;;;;4906718;29;20235;-79
2021/06/17 10:14:09;;;;;;;0.10;0.10;;;30.30;59.60;;;;;;4907172;29;20522;-79
2021/06/17 10:16:40;;;;;;;0.10;0.10;;;30.60;59.10;;;;;;4907072;29;20203;-79
2021/06/17 10:19:08;;;;;;;0.10;0.10;;;30.30;57.70;;;;;;4906774;29;20218;-81
2021/06/17 10:21:36;;;;;;;0.10;0.10;;;30.30;57.00;;;;;;4907514;29;20223;-81
2021/06/17 10:24:12;;;;;;;0.10;0.10;;;30.20;57.20;;;;;;4935717;23;20229;-78
2021/06/17 10:26:43;;;;;;;0.10;0.10;;;30.40;59.00;;;;;;4940975;29;20214;-78
2021/06/17 10:29:33;;;;;;;0.10;0.10;;;30.40;58.50;;;;;;4940904;29;20230;-78
2021/06/17 10:32:04;;;;;;;0.00;0.00;;;30.40;58.00;;;;;;4940404;29;20226;-78
2021/06/17 10:34:37;;;;;;;0.10;0.10;;;30.50;58.10;;;;;;4939921;29;20698;-78
2021/06/17 10:37:13;;;;;;;0.00;0.00;;;30.50;58.20;;;;;;4940352;29;20217;-78
2021/06/17 10:39:43;;;;;;;0.10;0.10;;;30.40;58.70;;;;;;4940279;29;20214;-78
2021/06/17 10:42:33;;;;;;;0.10;0.10;;;30.50;58.70;;;;;;4939863;29;20206;-78
2021/06/17 10:45:02;;;;;;;0.03;0.03;;;30.50;57.90;;;;;;4934720;29;20654;-78
2021/06/17 10:47:55;;;;;;;0.10;0.10;;;30.50;58.30;;;;;;4940787;29;20213;-78
2021/06/17 10:50:28;;;;;;;0.10;0.10;;;30.60;58.50;;;;;;4940169;29;20206;-78
2021/06/17 10:53:39;;;;;;;0.00;0.00;;;30.60;59.40;;;;;;4940185;29;20229;-78
2021/06/17 10:56:09;;;;;;;0.10;0.10;;;30.60;59.10;;;;;;4905928;29;20261;-78
2021/06/17 10:58:57;;;;;;;0.10;0.10;;;30.70;58.70;;;;;;4940633;29;20210;-78
2021/06/17 11:01:28;;;;;;;0.00;0.00;;;30.70;59.10;;;;;;4941041;29;20198;-78
2021/06/17 11:04:19;;;;;;;0.10;0.10;;;30.80;59.50;;;;;;4940748;29;20232;-77
2021/06/17 11:07:14;;;;;;;0.10;0.10;;;30.70;57.70;;;;;;4941367;29;20269;-77
2021/06/17 11:10:08;;;;;;;0.10;0.10;;;30.60;57.00;;;;;;4940343;29;20214;-78
2021/06/17 11:13:00;;;;;;;0.00;0.00;;;30.70;57.20;;;;;;4935030;29;20308;-78
2021/06/17 11:15:36;;;;;;;0.00;0.00;;;;;;;;;;4941270;29;20241;-77
2021/06/17 11:18:04;;;;;;;0.10;0.10;;;30.70;92.10;;;;;;4941321;29;20206;-78
2021/06/17 11:20:42;;;;;;;0.00;0.00;;;30.80;56.00;;;;;;4940265;29;20628;-77
2021/06/17 11:23:11;;;;;;;0.00;0.00;;;30.80;56.50;;;;;;4940844;29;20209;-77
2021/06/17 11:25:42;;;;;;;0.10;0.10;;;31.00;57.50;;;;;;4939903;29;20630;-77
2021/06/17 11:28:13;;;;;;;0.10;0.10;;;30.90;60.80;;;;;;4939146;29;20205;-77
2021/06/17 11:30:58;;;;;;;0.00;0.00;;;31.00;56.80;;;;;;4939691;29;20210;-77
2021/06/17 11:33:43;;;;;;;0.00;0.00;;;31.00;54.50;;;;;;4938191;29;20234;-76
2021/06/17 11:36:17;;;;;;;0.10;0.10;;;31.10;55.60;;;;;;4937640;29;20209;-76
2021/06/17 11:38:49;;;;;;;0.10;0.10;;;31.10;56.10;;;;;;4939065;29;20565;-76
2021/06/17 11:41:37;;;;;;;0.10;0.10;;;31.20;57.40;;;;;;4938612;29;20202;-77
2021/06/17 11:44:06;;;;;;;0.10;0.10;;;31.30;55.80;;;;;;4938788;29;20256;-77
2021/06/17 11:46:38;;;;;;;0.10;0.10;;;31.30;56.30;;;;;;4939517;29;20217;-78
2021/06/17 11:49:33;;;;;;;0.10;0.10;;;31.40;57.60;;;;;;4939658;29;20281;-78
2021/06/17 11:52:07;;;;;;;0.10;0.10;;;31.40;57.10;;;;;;4939629;29;20264;-78
2021/06/17 11:54:34;;;;;;;0.10;0.10;;;31.50;56.60;;;;;;4938750;29;20281;-78
2021/06/17 11:57:04;;;;;;;0.10;0.10;;;31.60;58.10;;;;;;4937878;29;20206;-78
2021/06/17 11:59:33;;;;;;;0.10;0.10;;;31.70;57.40;;;;;;4938621;29;20214;-78
2021/06/17 12:02:16;;;;;;;0.10;0.10;;;31.70;57.00;;;;;;4939137;29;20262;-77
2021/06/17 12:04:54;;;;;;;0.10;0.10;;;31.70;57.00;;;;;;4940261;29;20229;-78
2021/06/17 12:07:38;;;;;;;0.10;0.10;;;31.90;56.50;;;;;;4942236;29;20202;-78
2021/06/17 12:10:09;;;;;;;0.08;0.08;;;32.10;56.20;;;;;;4943528;29;20235;-78
2021/06/17 12:12:40;;;;;;;0.10;0.10;;;32.20;55.60;;;;;;4943888;29;20586;-77
2021/06/17 12:15:09;;;;;;;0.10;0.10;;;32.30;55.70;;;;;;4945389;29;20589;-76
2021/06/17 12:17:43;;;;;;;0.10;0.10;;;32.50;54.50;;;;;;4942253;29;20201;-78
2021/06/17 12:20:18;;;;;;;0.08;0.08;;;32.80;54.40;;;;;;4939199;29;20213;-76
2021/06/17 12:23:02;;;;;;;0.10;0.10;;;33.10;54.70;;;;;;4937654;29;20205;-76
2021/06/17 12:25:34;;;;;;;0.10;0.10;;;33.20;54.00;;;;;;4937611;29;20205;-77
2021/06/17 12:28:05;;;;;;;0.10;0.10;;;33.40;52.30;;;;;;4936496;29;20228;-76
2021/06/17 12:30:35;;;;;;;0.10;0.10;;;33.80;53.20;;;;;;4937844;29;20745;-76
2021/06/17 12:33:07;;;;;;;0.00;0.00;;;34.20;53.60;;;;;;4936779;29;20228;-77
2021/06/17 12:35:40;;;;;;;0.00;0.00;;;34.40;52.10;;;;;;4937947;29;20209;-77
2021/06/17 12:38:10;;;;;;;0.00;0.00;;;35.00;51.00;;;;;;4939205;29;20210;-77
2021/06/17 12:40:40;;;;;;;0.00;0.00;;;35.70;50.10;;;;;;4939668;29;20678;-77
2021/06/17 12:43:14;;;;;;;0.00;0.00;;;36.40;48.60;;;;;;4937865;29;20225;-77
2021/06/17 12:45:44;;;;;;;0.00;0.00;;;37.30;47.60;;;;;;4937416;29;20670;-77
2021/06/17 12:48:21;;;;;;;0.00;0.00;;;37.80;46.90;;;;;;4937972;29;20209;-77
2021/06/17 12:53:47;;;;;;;0.00;0.00;;;39.50;43.90;;;;;;4937140;29;20932;-77
2021/06/17 12:56:15;;;;;;;0.00;0.00;;;40.20;43.00;;;;;;4936218;29;20209;-77
2021/06/17 12:58:50;;;;;;;0.00;0.00;;;;;;;;;;4935995;29;20298;-77
2021/06/17 13:01:20;;;;;;;0.00;0.00;;;41.60;40.30;;;;;;4935890;29;20231;-77
2021/06/17 13:03:49;;;;;;;0.00;0.00;;;42.20;40.10;;;;;;4936299;29;20233;-77
2021/06/17 13:06:38;;;;;;;0.00;0.00;;;42.30;38.50;;;;;;4939194;29;20273;-77
2021/06/17 13:09:21;;;;;;;0.00;0.00;;;42.80;37.10;;;;;;4939385;29;20206;-78
2021/06/17 13:12:04;;;;;;;0.00;0.00;;;43.20;36.80;;;;;;4938879;29;20233;-78
2021/06/17 13:14:33;;;;;;;0.00;0.00;;;42.70;36.70;;;;;;4938999;29;20599;-77
2021/06/17 13:17:05;;;;;;;0.00;0.00;;;43.40;36.10;;;;;;4939309;29;20662;-78
2021/06/17 13:19:34;;;;;;;0.00;0.00;;;43.70;36.10;;;;;;4939863;29;20205;-77
2021/06/17 13:22:03;;;;;;;0.00;0.00;;;43.80;34.20;;;;;;4942835;29;20223;-77
2021/06/17 13:24:41;;;;;;;0.00;0.00;;;43.60;34.20;;;;;;4942983;29;20269;-78
2021/06/17 13:27:13;;;;;;;0.00;0.00;;;43.90;33.90;;;;;;4941025;29;20229;-78
2021/06/17 13:29:55;;;;;;;0.00;0.00;;;44.10;33.90;;;;;;4943510;29;20209;-78
2021/06/17 13:32:23;;;;;;;0.00;0.00;;;44.00;32.80;;;;;;4943174;29;20702;-78
2021/06/17 13:34:51;;;;;;;0.00;0.00;;;43.80;33.00;;;;;;4942394;29;20233;-78
2021/06/17 13:37:20;;;;;;;0.00;0.00;;;44.10;33.30;;;;;;4941597;29;20261;-77
2021/06/17 13:39:50;;;;;;;0.00;0.00;;;44.10;33.00;;;;;;4940383;29;20253;-77
2021/06/17 13:42:19;;;;;;;0.00;0.00;;;44.20;33.60;;;;;;4940487;29;20229;-77
2021/06/17 13:44:49;;;;;;;0.00;0.00;;;43.80;32.70;;;;;;4940391;29;20629;-77
2021/06/17 13:47:17;;;;;;;0.00;0.00;;;43.40;33.10;;;;;;4943362;29;20268;-78
2021/06/17 13:49:46;;;;;;;0.00;0.00;;;42.90;33.70;;;;;;4943387;29;20287;-78
2021/06/17 13:52:14;;;;;;;0.00;0.00;;;42.40;35.10;;;;;;4942585;29;20210;-77
2021/06/17 13:54:42;;;;;;;0.00;0.00;;;41.70;34.80;;;;;;4942487;29;20222;-77
2021/06/17 13:57:13;;;;;;;0.00;0.00;;;40.60;36.00;;;;;;4942760;29;20209;-77
2021/06/17 13:59:41;;;;;;;0.00;0.00;;;39.70;36.90;;;;;;4940857;29;20205;-77
2021/06/17 14:02:10;;;;;;;0.00;0.00;;;39.20;37.60;;;;;;4940027;29;20663;-77
2021/06/17 14:04:42;;;;;;;0.00;0.00;;;38.20;37.90;;;;;;4939069;29;20277;-76
2021/06/17 14:07:10;;;;;;;0.00;0.00;;;37.60;39.20;;;;;;4939676;29;20206;-77
2021/06/17 14:09:37;;;;;;;0.00;0.00;;;37.00;40.10;;;;;;4940410;29;20791;-78
2021/06/17 14:12:06;;;;;;;0.00;0.00;;;36.40;40.80;;;;;;4940943;29;20268;-77
2021/06/17 14:14:35;;;;;;;0.00;0.00;;;36.10;41.30;;;;;;4940389;29;20230;-77
2021/06/17 14:17:04;;;;;;;0.00;0.00;;;35.60;42.10;;;;;;4940958;29;20632;-77
2021/06/17 14:19:32;;;;;;;0.00;0.00;;;35.40;42.60;;;;;;4941368;29;20220;-77
2021/06/17 14:21:59;;;;;;;0.00;0.00;;;35.00;43.20;;;;;;4940714;29;20234;-78
2021/06/17 14:24:27;;;;;;;0.00;0.00;;;34.90;43.20;;;;;;4940492;29;20284;-77
2021/06/17 14:26:55;;;;;;;0.00;0.00;;;34.80;43.60;;;;;;4940411;29;20240;-77
2021/06/17 14:29:23;;;;;;;0.00;0.00;;;34.50;43.90;;;;;;4940148;29;20616;-77
2021/06/17 14:31:52;;;;;;;0.00;0.00;;;34.30;43.60;;;;;;4939976;29;20440;-77
2021/06/17 14:34:20;;;;;;;0.00;0.00;;;34.20;43.60;;;;;;4941037;29;20742;-77
2021/06/17 14:36:51;;;;;;;0.00;0.00;;;34.10;44.00;;;;;;4939111;29;20212;-77
2021/06/17 14:39:18;;;;;;;0.00;0.00;;;34.00;44.30;;;;;;4939247;29;20206;-78
2021/06/17 14:41:46;;;;;;;0.00;0.00;;;33.90;44.80;;;;;;4939417;29;20253;-77
2021/06/17 14:44:16;;;;;;;0.00;0.00;;;33.80;44.80;;;;;;4940110;29;20225;-76
2021/06/17 14:46:44;;;;;;;0.00;0.00;;;33.70;44.80;;;;;;4939886;29;20237;-78
2021/06/17 14:49:14;;;;;;;0.00;0.00;;;33.50;45.90;;;;;;4937730;29;20292;-77
2021/06/17 14:51:42;;;;;;;0.00;0.00;;;33.50;45.80;;;;;;4939709;29;20308;-77
2021/06/17 14:54:10;;;;;;;0.00;0.00;;;33.40;45.60;;;;;;4939678;29;20758;-76
2021/06/17 14:56:38;;;;;;;0.00;0.00;;;33.30;45.90;;;;;;4939918;29;20829;-77
2021/06/17 14:59:09;;;;;;;0.00;0.00;;;33.30;46.10;;;;;;4939820;29;20216;-77
2021/06/17 15:01:37;;;;;;;0.00;0.00;;;33.30;46.60;;;;;;4939787;29;20675;-77
2021/06/17 15:04:05;;;;;;;0.00;0.00;;;33.20;45.60;;;;;;4939110;29;20228;-77
2021/06/17 15:06:35;;;;;;;0.00;0.00;;;33.10;46.50;;;;;;4939614;29;20209;-77
2021/06/17 15:09:03;;;;;;;0.00;0.00;;;33.20;46.70;;;;;;4939134;29;20238;-78
2021/06/17 15:11:31;;;;;;;0.00;0.00;;;33.00;46.70;;;;;;4937054;29;20256;-76
2021/06/17 15:14:01;;;;;;;0.00;0.00;;;33.00;47.80;;;;;;4936969;29;20221;-77
2021/06/17 15:16:29;;;;;;;0.00;0.00;;;32.90;47.00;;;;;;4937238;29;20264;-76
2021/06/17 15:18:58;;;;;;;0.00;0.00;;;32.80;47.60;;;;;;4937079;29;20202;-77
2021/06/17 15:21:26;;;;;;;0.00;0.00;;;32.80;48.30;;;;;;4936793;29;20269;-77
2021/06/17 15:23:56;;;;;;;0.00;0.00;;;32.80;49.00;;;;;;4936607;29;20229;-76
2021/06/17 15:26:25;;;;;;;0.00;0.00;;;32.80;48.60;;;;;;4936970;29;20234;-76
2021/06/17 15:28:54;;;;;;;0.00;0.00;;;32.80;48.70;;;;;;4936778;29;20261;-77
2021/06/17 15:31:23;;;;;;;0.00;0.00;;;32.80;48.30;;;;;;4937574;29;20205;-76
2021/06/17 15:33:53;;;;;;;0.00;0.00;;;32.80;48.30;;;;;;4936280;29;20222;-77
2021/06/17 15:36:22;;;;;;;0.10;0.10;;;32.70;48.20;;;;;;4936659;29;20210;-77
2021/06/17 15:38:50;;;;;;;0.00;0.00;;;32.70;48.60;;;;;;4938133;29;20230;-77
2021/06/17 15:41:19;;;;;;;0.00;0.00;;;32.60;49.30;;;;;;4938188;29;20201;-77
2021/06/17 15:43:47;;;;;;;0.00;0.00;;;32.50;49.00;;;;;;4936682;29;20762;-77
2021/06/17 15:46:15;;;;;;;0.00;0.00;;;32.40;48.80;;;;;;4937396;29;20584;-77
2021/06/17 15:48:43;;;;;;;0.00;0.00;;;32.30;49.20;;;;;;4937778;29;20577;-77
2021/06/17 15:51:11;;;;;;;0.00;0.00;;;32.30;49.40;;;;;;4938041;29;20468;-77
2021/06/17 15:53:39;;;;;;;0.00;0.00;;;32.30;49.60;;;;;;4938166;29;20280;-77
2021/06/17 15:56:06;;;;;;;0.00;0.00;;;32.30;50.00;;;;;;4937722;29;20212;-78
2021/06/17 15:58:36;;;;;;;0.00;0.00;;;32.30;49.60;;;;;;4937992;29;20214;-77
2021/06/17 16:01:04;;;;;;;0.00;0.00;;;32.30;49.90;;;;;;4938569;29;20854;-77
2021/06/17 16:03:32;;;;;;;0.00;0.00;;;32.30;49.70;;;;;;4937773;29;20226;-78
2021/06/17 16:06:00;;;;;;;0.00;0.00;;;32.30;50.10;;;;;;4937796;29;20205;-77
2021/06/17 16:08:27;;;;;;;0.00;0.00;;;32.30;50.00;;;;;;4937804;29;20230;-77
2021/06/17 16:10:56;;;;;;;0.00;0.00;;;32.40;50.60;;;;;;4937978;29;20202;-78
2021/06/17 16:13:24;;;;;;;0.00;0.00;;;32.70;49.70;;;;;;4937557;29;20233;-77
2021/06/17 16:15:53;;;;;;;0.00;0.00;;;33.00;49.60;;;;;;4937864;29;20648;-78
2021/06/17 16:18:21;;;;;;;0.00;0.00;;;33.30;50.10;;;;;;4938394;29;20317;-78
2021/06/17 16:20:50;;;;;;;0.00;0.00;;;33.20;49.10;;;;;;4939382;29;20202;-77
2021/06/17 16:23:19;;;;;;;0.00;0.00;;;33.20;49.50;;;;;;4938624;29;20253;-78
2021/06/17 16:25:47;;;;;;;0.00;0.00;;;33.20;49.50;;;;;;4937500;29;20257;-79
2021/06/17 16:28:15;;;;;;;0.00;0.00;;;33.50;49.80;;;;;;4937663;29;20734;-78
2021/06/17 16:30:43;;;;;;;0.00;0.00;;;33.50;48.70;;;;;;4938056;29;20249;-79
2021/06/17 16:33:13;;;;;;;0.00;0.00;;;33.40;49.10;;;;;;4937202;29;20304;-78
2021/06/17 16:35:40;;;;;;;0.00;0.00;;;33.30;49.20;;;;;;4937238;29;20233;-79
2021/06/17 16:38:09;;;;;;;0.00;0.00;;;33.10;49.20;;;;;;4942037;29;20237;-76
2021/06/17 16:40:36;;;;;;;0.00;0.00;;;33.20;49.60;;;;;;4919339;29;20210;-77
2021/06/17 16:43:04;;;;;;;0.00;0.00;;;33.50;58.60;;;;;;4938816;29;20213;-77
2021/06/17 16:45:32;;;;;;;0.00;0.00;;;33.40;49.50;;;;;;4938410;29;20225;-79
2021/06/17 16:48:00;;;;;;;0.00;0.00;;;33.50;48.60;;;;;;4938644;29;20209;-78
2021/06/17 16:50:30;;;;;;;0.00;0.00;;;33.30;48.60;;;;;;4938560;29;20206;-79
2021/06/17 16:52:58;;;;;;;0.00;0.00;;;33.20;58.00;;;;;;4938249;29;20206;-79
2021/06/17 16:55:26;;;;;;;0.00;0.00;;;33.10;48.90;;;;;;4938282;29;20225;-79
2021/06/17 16:57:54;;;;;;;0.00;0.00;;;33.10;49.30;;;;;;4938457;29;20206;-79
2021/06/17 17:00:23;;;;;;;0.00;0.00;;;33.10;49.60;;;;;;4938504;29;20253;-79
2021/06/17 17:02:52;;;;;;;0.00;0.00;;;33.20;49.50;;;;;;4938107;29;20629;-78
2021/06/17 17:05:20;;;;;;;0.00;0.00;;;33.40;50.00;;;;;;4937928;29;20209;-79
2021/06/17 17:07:49;;;;;;;0.00;0.00;;;33.40;48.70;;;;;;4938674;29;20233;-79
2021/06/17 17:10:19;;;;;;;0.00;0.00;;;33.40;48.40;;;;;;4938464;29;20689;-78
2021/06/17 17:12:50;;;;;;;0.10;0.10;;;33.60;48.20;;;;;;4938473;29;20205;-80
2021/06/17 17:15:18;;;;;;;0.00;0.00;;;33.90;47.60;;;;;;4938724;29;20225;-80
2021/06/17 17:17:47;;;;;;;0.00;0.00;;;34.10;46.10;;;;;;4938921;29;20208;-79
2021/06/17 17:20:16;;;;;;;0.00;0.00;;;34.40;46.50;;;;;;4939229;29;20213;-79
2021/06/17 17:22:46;;;;;;;0.00;0.00;;;34.70;45.60;;;;;;4939302;29;20236;-78
2021/06/17 17:25:15;;;;;;;0.00;0.00;;;35.00;45.20;;;;;;4939723;29;20234;-78
2021/06/17 17:27:43;;;;;;;0.00;0.00;;;35.30;44.60;;;;;;4937863;29;20210;-77